Time;durP1;ratioP1;P1;durP2;ratioP2;P2;SDS_P1;SDS_P2;PMS_P1;PMS_P2;Temp;Humidity;BMP_temperature;BMP_pressure;BME280_temperature;BME280_humidity;BME280_pressure;Samples;Min_cycle;Max_cycle;Signal;HPM_P1;HPM_P2
2023/07/13 00:02:07;;;;;;;26.08;11.65;;;;;;;24.28;54.42;93305.22;5007873;28;20053;-89
2023/07/13 00:04:32;;;;;;;18.88;10.50;;;;;;;24.29;54.62;93292.13;5015202;28;20050;-90
2023/07/13 00:06:58;;;;;;;17.15;9.98;;;;;;;24.27;54.45;93276.84;5001845;28;20556;-90
2023/07/13 00:09:23;;;;;;;14.10;9.23;;;;;;;24.27;54.38;93268.56;4979932;28;20415;-90
2023/07/13 00:11:55;;;;;;;16.48;9.45;;;;;;;24.27;54.61;93289.94;5023572;28;20048;-89
2023/07/13 00:14:20;;;;;;;18.27;10.80;;;;;;;24.26;54.60;93308.53;5007019;28;20045;-89
2023/07/13 00:16:46;;;;;;;18.27;10.32;;;;;;;24.27;54.51;93307.25;5007052;28;20041;-89
2023/07/13 00:19:12;;;;;;;14.00;10.00;;;;;;;24.27;54.38;93304.47;5007829;28;20068;-89
2023/07/13 00:21:38;;;;;;;14.20;9.43;;;;;;;24.26;54.65;93280.16;5005474;28;20042;-90
2023/07/13 00:24:05;;;;;;;18.98;10.00;;;;;;;24.26;54.20;93280.16;5020360;28;20109;-90
2023/07/13 00:26:32;;;;;;;21.20;9.82;;;;;;;24.27;54.39;93300.97;5002345;28;20050;-89
2023/07/13 00:28:57;;;;;;;14.45;9.65;;;;;;;24.26;54.68;93291.22;5025632;28;20034;-91
2023/07/13 00:31:23;;;;;;;17.27;10.55;;;;;;;24.25;54.52;93276.66;5006378;28;20041;-89
2023/07/13 00:33:49;;;;;;;19.63;9.80;;;;;;;24.26;54.32;93255.31;5005298;28;20038;-90
2023/07/13 00:36:14;;;;;;;20.33;10.82;;;;;;;24.26;54.46;93256.03;5021483;28;20041;-90
2023/07/13 00:38:39;;;;;;;14.45;9.68;;;;;;;24.26;54.34;93252.53;5023313;28;20074;-89
2023/07/13 00:41:05;;;;;;;14.60;9.07;;;;;;;24.26;54.40;93247.75;5007009;28;20034;-89
2023/07/13 00:43:30;;;;;;;15.23;9.18;;;;;;;24.26;54.27;93263.59;5041717;28;20041;-90
2023/07/13 00:45:56;;;;;;;15.82;8.77;;;;;;;24.25;54.45;93271.13;5006943;28;20065;-89
2023/07/13 00:48:23;;;;;;;14.27;8.57;;;;;;;24.25;54.38;93267.63;5024445;28;20125;-89
2023/07/13 00:50:50;;;;;;;16.38;8.88;;;;;;;24.24;54.40;93263.44;5020804;28;20046;-89
2023/07/13 00:53:16;;;;;;;15.23;8.40;;;;;;;24.25;54.27;93257.31;5026285;28;20504;-89
2023/07/13 00:55:41;;;;;;;16.60;9.63;;;;;;;24.24;54.30;93271.72;5044700;28;20085;-88
2023/07/13 00:58:07;;;;;;;12.85;8.80;;;;;;;24.25;54.29;93292.50;5028023;28;20123;-89
2023/07/13 01:00:35;;;;;;;15.57;9.07;;;;;;;24.24;54.55;93305.59;5037819;28;20096;-89
2023/07/13 01:03:04;;;;;;;17.02;8.32;;;;;;;24.25;54.45;93320.13;5027600;28;20132;-89
2023/07/13 01:05:29;;;;;;;13.75;7.85;;;;;;;24.23;54.25;93320.69;5026945;28;20444;-90
2023/07/13 01:07:55;;;;;;;14.23;8.25;;;;;;;24.23;54.53;93306.88;5010245;28;20480;-90
2023/07/13 01:10:23;;;;;;;16.08;8.88;;;;;;;24.24;54.53;93318.69;5011175;28;20152;-89
2023/07/13 01:12:49;;;;;;;16.13;9.02;;;;;;;24.24;54.45;93326.97;5011053;28;20037;-89
2023/07/13 01:15:44;;;;;;;14.02;8.23;;;;;;;24.23;54.28;93325.47;5037265;28;20053;-90
2023/07/13 01:18:13;;;;;;;12.77;8.90;;;;;;;24.22;54.37;93333.00;4989314;28;20046;-89
2023/07/13 01:20:38;;;;;;;13.98;7.63;;;;;;;24.22;54.23;93330.25;4973803;28;20049;-88
2023/07/13 01:23:06;;;;;;;13.27;7.80;;;;;;;24.23;54.37;93331.72;4985138;28;20548;-91
2023/07/13 01:25:31;;;;;;;20.25;9.27;;;;;;;24.22;54.55;93338.53;4996907;28;20050;-89
2023/07/13 01:27:57;;;;;;;10.98;8.25;;;;;;;24.21;54.38;93319.75;4988486;28;20104;-90
2023/07/13 01:30:22;;;;;;;12.32;8.27;;;;;;;24.22;54.18;93321.97;4997556;28;20069;-89
2023/07/13 01:32:48;;;;;;;10.32;6.72;;;;;;;24.22;54.31;93324.72;4973796;28;20049;-89
2023/07/13 01:35:13;;;;;;;11.68;7.85;;;;;;;24.22;54.23;93318.47;4972548;28;20116;-88
2023/07/13 01:37:38;;;;;;;14.07;8.85;;;;;;;24.21;54.39;93322.50;5005099;28;20068;-89
2023/07/13 01:40:04;;;;;;;17.88;8.75;;;;;;;24.21;54.28;93328.03;5012471;28;20042;-89
2023/07/13 01:42:31;;;;;;;14.38;8.80;;;;;;;24.20;54.39;93321.78;4989562;28;20065;-89
2023/07/13 01:44:56;;;;;;;12.40;7.80;;;;;;;24.20;54.29;93327.31;4956253;28;20513;-89
2023/07/13 01:47:22;;;;;;;15.48;8.55;;;;;;;24.18;54.52;93329.88;5005167;28;20085;-89
2023/07/13 01:49:48;;;;;;;11.80;7.60;;;;;;;24.19;54.41;93320.31;5006488;28;20353;-89
2023/07/13 01:52:13;;;;;;;13.57;7.78;;;;;;;24.20;54.48;93346.63;4974512;28;20160;-89
2023/07/13 01:54:39;;;;;;;15.18;7.90;;;;;;;24.19;54.55;93347.19;4979472;28;20046;-89
2023/07/13 01:57:04;;;;;;;15.00;7.55;;;;;;;24.19;54.36;93342.41;5022807;28;20046;-88
2023/07/13 01:59:30;;;;;;;9.70;7.05;;;;;;;24.20;54.30;93348.66;5026567;28;20041;-89
2023/07/13 02:01:55;;;;;;;10.57;7.80;;;;;;;24.20;54.33;93360.44;4999844;28;20049;-89
2023/07/13 02:04:21;;;;;;;11.85;7.47;;;;;;;24.20;54.19;93357.69;5008523;28;20030;-90
2023/07/13 02:06:46;;;;;;;10.63;7.28;;;;;;;24.20;54.26;93349.41;5018326;28;20056;-90
2023/07/13 02:09:12;;;;;;;12.13;7.20;;;;;;;24.17;54.32;93347.00;5026335;28;20037;-89
2023/07/13 02:11:37;;;;;;;13.55;6.97;;;;;;;24.16;54.38;93346.25;5043579;28;20046;-89
2023/07/13 02:14:02;;;;;;;12.52;6.38;;;;;;;24.20;54.24;93337.59;5033748;28;20041;-88
2023/07/13 02:16:29;;;;;;;11.95;6.93;;;;;;;24.17;54.34;93341.47;5025416;28;20466;-90
2023/07/13 02:18:55;;;;;;;13.43;7.28;;;;;;;24.16;54.38;93334.47;5027133;28;20581;-89
2023/07/13 02:21:21;;;;;;;16.23;8.15;;;;;;;24.16;54.44;93343.50;5024581;28;20064;-89
2023/07/13 02:23:46;;;;;;;10.48;7.60;;;;;;;24.16;54.36;93348.28;5010302;28;20046;-89
2023/07/13 02:26:12;;;;;;;11.27;7.40;;;;;;;24.16;54.40;93342.75;5009543;28;20057;-89
2023/07/13 02:28:37;;;;;;;8.93;6.07;;;;;;;24.16;54.63;93334.47;5008134;28;20042;-89
2023/07/13 02:31:08;;;;;;;10.23;6.68;;;;;;;24.17;54.56;93344.97;5025910;28;20428;-89
2023/07/13 02:33:34;;;;;;;11.13;6.60;;;;;;;24.16;54.52;93346.25;5009679;28;20056;-89
2023/07/13 02:35:59;;;;;;;14.20;6.38;;;;;;;24.16;54.44;93346.25;5025316;28;20041;-90
2023/07/13 02:38:25;;;;;;;13.60;7.50;;;;;;;24.16;54.41;93346.25;5025339;28;20057;-89
2023/07/13 02:40:51;;;;;;;11.60;7.80;;;;;;;24.14;54.21;93348.09;5009696;28;20534;-89
2023/07/13 02:43:16;;;;;;;12.73;6.97;;;;;;;24.16;54.38;93345.53;5023970;28;20041;-89
2023/07/13 02:45:45;;;;;;;8.02;5.85;;;;;;;24.15;54.35;93341.28;5009317;28;20523;-88
2023/07/13 02:48:10;;;;;;;8.23;5.68;;;;;;;24.14;54.51;93343.31;5008960;28;20053;-90
2023/07/13 02:50:36;;;;;;;10.50;7.15;;;;;;;24.14;54.53;93340.53;5008856;28;20041;-89
2023/07/13 02:53:01;;;;;;;8.95;6.35;;;;;;;24.14;54.32;93343.31;5009026;28;20408;-89
2023/07/13 02:55:26;;;;;;;12.20;6.35;;;;;;;24.14;54.27;93334.28;5025194;28;20049;-90
2023/07/13 02:57:52;;;;;;;8.43;6.15;;;;;;;24.15;54.52;93330.22;5025469;28;20038;-89
2023/07/13 03:00:17;;;;;;;8.60;6.45;;;;;;;24.14;54.47;93317.72;5011380;28;20050;-89
2023/07/13 03:02:43;;;;;;;10.13;6.43;;;;;;;24.14;54.18;93320.47;5026218;28;20042;-89
2023/07/13 03:05:12;;;;;;;13.32;5.97;;;;;;;24.13;54.43;93311.44;5023127;28;20041;-89
2023/07/13 03:07:38;;;;;;;10.15;6.60;;;;;;;24.12;54.53;93314.75;5007892;28;20045;-89
2023/07/13 03:10:04;;;;;;;9.95;5.90;;;;;;;24.12;54.53;93306.47;5025600;28;20440;-89
2023/07/13 03:12:29;;;;;;;9.93;6.78;;;;;;;24.11;54.66;93311.25;5024608;28;20047;-89
2023/07/13 03:14:54;;;;;;;10.60;7.10;;;;;;;24.11;54.40;93314.03;5030799;28;20057;-89
2023/07/13 03:17:20;;;;;;;6.70;5.95;;;;;;;24.11;54.37;93316.78;4989616;28;20046;-89
2023/07/13 03:19:49;;;;;;;9.07;6.22;;;;;;;24.11;54.36;93311.25;5033952;28;20049;-89
2023/07/13 03:22:15;;;;;;;6.85;5.80;;;;;;;24.12;54.59;93318.25;5025303;28;20045;-89
2023/07/13 03:24:40;;;;;;;8.90;6.28;;;;;;;24.11;54.51;93322.31;5009541;28;20068;-89
2023/07/13 03:27:06;;;;;;;7.95;6.22;;;;;;;24.13;54.77;93316.97;5039585;28;20147;-89
2023/07/13 03:29:31;;;;;;;19.17;6.13;;;;;;;24.16;54.59;93315.13;5008489;28;20044;-88
2023/07/13 03:31:58;;;;;;;12.57;8.25;;;;;;;24.22;54.69;93321.22;5025429;28;20049;-91
2023/07/13 03:34:24;;;;;;;10.25;7.90;;;;;;;24.22;54.74;93310.19;5021409;28;20068;-90
2023/07/13 03:36:50;;;;;;;16.63;12.65;;;;;;;23.96;55.46;93325.06;5026446;28;20042;-91
2023/07/13 03:39:15;;;;;;;17.58;15.00;;;;;;;23.92;55.40;93319.16;5041602;28;20045;-92
2023/07/13 03:41:41;;;;;;;16.10;12.80;;;;;;;23.75;55.96;93316.91;5043075;28;20060;-90
2023/07/13 03:44:06;;;;;;;13.43;10.65;;;;;;;23.57;56.58;93320.72;5010055;28;20033;-90
2023/07/13 03:46:33;;;;;;;17.20;14.65;;;;;;;23.47;56.78;93320.47;5008669;28;20049;-95
2023/07/13 03:48:59;;;;;;;47.78;26.30;;;;;;;23.39;57.00;93327.97;4989833;28;20045;-88
2023/07/13 03:51:24;;;;;;;18.02;12.18;;;;;;;23.33;57.30;93321.91;4988147;28;20050;-88
2023/07/13 03:53:50;;;;;;;32.35;14.90;;;;;;;23.23;57.58;93329.94;5005724;28;20042;-91
2023/07/13 03:56:16;;;;;;;41.35;17.63;;;;;;;23.21;58.01;93329.00;5022844;28;20037;-90
2023/07/13 03:58:42;;;;;;;47.38;16.60;;;;;;;23.16;57.85;93333.41;5024604;28;20033;-90
2023/07/13 04:01:09;;;;;;;20.88;13.27;;;;;;;23.02;58.20;93329.28;5005848;28;20057;-88
2023/07/13 04:03:34;;;;;;;70.75;27.83;;;;;;;22.84;58.88;93330.28;5004804;28;20042;-89
2023/07/13 04:06:01;;;;;;;64.28;23.23;;;;;;;22.78;58.74;93335.19;5018199;28;20048;-89
2023/07/13 04:08:29;;;;;;;74.10;21.15;;;;;;;22.88;58.50;93336.94;5018845;28;20168;-91
2023/07/13 04:10:55;;;;;;;66.43;20.60;;;;;;;22.80;59.00;93336.13;5010108;28;20033;-90
2023/07/13 04:13:20;;;;;;;87.90;21.08;;;;;;;22.80;58.67;93330.63;5016412;28;20042;-89
2023/07/13 04:15:46;;;;;;;70.72;22.95;;;;;;;22.76;59.01;93332.94;5025459;28;20108;-89
2023/07/13 04:18:11;;;;;;;72.70;21.60;;;;;;;22.73;59.11;93331.28;5007763;28;20041;-91
2023/07/13 04:20:37;;;;;;;86.63;21.48;;;;;;;22.81;58.78;93336.88;5005743;28;20041;-90
2023/07/13 04:23:02;;;;;;;70.90;18.88;;;;;;;22.73;59.02;93338.81;4991340;28;20056;-91
2023/07/13 04:25:28;;;;;;;36.53;13.07;;;;;;;22.77;59.17;93342.72;5009117;28;20060;-91
2023/07/13 04:27:54;;;;;;;32.15;10.07;;;;;;;22.82;59.23;93341.84;5024005;28;20042;-91
2023/07/13 04:30:19;;;;;;;60.10;20.48;;;;;;;22.83;58.91;93328.81;5027395;28;20088;-90
2023/07/13 04:32:45;;;;;;;102.82;25.27;;;;;;;22.79;58.89;93348.44;5027791;28;20037;-88
2023/07/13 04:35:11;;;;;;;50.20;18.38;;;;;;;22.75;59.36;93339.00;5027159;28;20037;-89
2023/07/13 04:37:36;;;;;;;46.10;20.10;;;;;;;22.66;59.68;93345.00;5008603;28;20038;-88
2023/07/13 04:40:03;;;;;;;39.85;15.57;;;;;;;22.64;59.71;93342.78;5004939;28;20094;-91
2023/07/13 04:42:31;;;;;;;48.50;15.55;;;;;;;22.64;59.72;93348.31;5039508;28;20033;-88
2023/07/13 04:44:56;;;;;;;50.97;14.73;;;;;;;22.66;59.74;93347.78;5011445;28;20524;-91
2023/07/13 04:47:22;;;;;;;49.60;15.27;;;;;;;22.55;60.09;93349.53;5044375;28;20124;-88
2023/07/13 04:49:47;;;;;;;114.93;50.92;;;;;;;22.61;60.13;93345.88;5029019;28;20053;-88
2023/07/13 04:52:13;;;;;;;84.78;37.20;;;;;;;22.58;60.14;93353.22;5006593;28;20099;-89
2023/07/13 04:54:39;;;;;;;71.55;33.05;;;;;;;22.47;60.48;93348.75;5023448;28;20055;-92
2023/07/13 04:57:08;;;;;;;48.83;17.27;;;;;;;22.47;60.83;93359.03;5011584;28;20041;-89
2023/07/13 04:59:36;;;;;;;63.28;28.00;;;;;;;22.44;60.54;93354.59;5028125;28;20415;-91
2023/07/13 05:02:03;;;;;;;107.35;69.45;;;;;;;22.38;60.87;93343.69;5011980;28;20230;-90
2023/07/13 05:04:28;;;;;;;55.85;35.53;;;;;;;22.42;60.68;93357.13;5025824;28;20378;-89
2023/07/13 05:06:54;;;;;;;52.00;25.77;;;;;;;22.39;60.98;93356.19;5011510;28;20085;-90
2023/07/13 05:09:19;;;;;;;44.85;25.85;;;;;;;22.40;60.55;93351.41;5028595;28;20076;-86
2023/07/13 05:11:45;;;;;;;53.10;23.50;;;;;;;22.49;60.41;93350.97;5024579;28;20045;-89
2023/07/13 05:14:10;;;;;;;48.97;22.27;;;;;;;22.45;60.68;93345.03;5029501;28;20106;-90
2023/07/13 05:16:36;;;;;;;68.15;29.35;;;;;;;22.40;60.62;93337.66;5044584;28;20046;-89
2023/07/13 05:19:02;;;;;;;56.45;27.55;;;;;;;22.39;60.61;93331.41;5027316;28;20084;-88
2023/07/13 05:21:28;;;;;;;44.85;20.92;;;;;;;22.37;60.55;93335.97;5011564;28;20467;-88
2023/07/13 05:23:53;;;;;;;75.22;21.80;;;;;;;22.38;60.46;93340.19;5047030;28;20045;-90
2023/07/13 05:26:20;;;;;;;49.50;20.60;;;;;;;22.28;60.87;93337.19;5008370;28;20095;-89
2023/07/13 05:28:46;;;;;;;90.18;47.15;;;;;;;22.33;60.67;93332.81;5022304;28;20060;-89
2023/07/13 05:31:11;;;;;;;98.97;46.95;;;;;;;22.27;60.49;93335.72;5028739;28;20047;-89
2023/07/13 05:33:37;;;;;;;85.28;40.33;;;;;;;22.21;60.86;93330.34;5014095;28;20045;-90
2023/07/13 05:36:02;;;;;;;99.13;47.20;;;;;;;22.15;60.83;93332.47;5029004;28;20045;-91
2023/07/13 05:38:28;;;;;;;77.60;41.10;;;;;;;22.13;61.18;93339.81;5028413;28;20046;-89
2023/07/13 05:40:55;;;;;;;59.50;25.60;;;;;;;22.13;60.93;93348.06;4990469;28;20047;-89
2023/07/13 05:43:20;;;;;;;45.50;22.80;;;;;;;22.16;60.91;93358.00;5012514;28;20056;-90
2023/07/13 05:45:46;;;;;;;54.65;22.05;;;;;;;22.09;61.03;93356.66;5009747;28;20045;-89
2023/07/13 05:48:11;;;;;;;181.85;34.33;;;;;;;22.06;61.30;93357.75;5028139;28;20091;-89
2023/07/13 05:50:44;;;;;;;40.05;13.88;;;;;;;22.00;61.34;93359.13;5045400;28;20057;-91
2023/07/13 05:53:11;;;;;;;60.15;17.30;;;;;;;22.00;61.71;93354.38;5000720;28;20035;-89
2023/07/13 05:55:42;;;;;;;54.88;22.27;;;;;;;21.89;61.96;93360.09;5014430;28;20165;-90
2023/07/13 05:58:08;;;;;;;119.55;63.85;;;;;;;21.88;61.84;93359.34;5012178;28;20037;-88
2023/07/13 06:00:37;;;;;;;81.22;38.65;;;;;;;21.91;62.17;93371.31;4983956;28;20044;-90
2023/07/13 06:03:03;;;;;;;43.72;22.60;;;;;;;21.96;62.41;93370.44;5017218;28;20495;-90
2023/07/13 06:05:29;;;;;;;53.13;30.58;;;;;;;21.95;62.73;93366.22;4977970;28;20048;-92
2023/07/13 06:07:55;;;;;;;68.47;38.15;;;;;;;21.99;62.27;93374.88;4991002;28;20319;-93
2023/07/13 06:10:21;;;;;;;51.22;29.67;;;;;;;22.02;61.91;93373.84;5005871;28;20057;-93
2023/07/13 06:12:46;;;;;;;37.90;24.25;;;;;;;21.96;62.17;93372.47;4992877;28;20615;-90
2023/07/13 06:15:12;;;;;;;33.78;23.33;;;;;;;21.88;62.43;93383.38;4997809;28;20033;-91
2023/07/13 06:17:37;;;;;;;25.17;17.20;;;;;;;21.95;62.46;93376.50;4977843;28;20045;-91
2023/07/13 06:20:03;;;;;;;28.60;14.60;;;;;;;21.94;61.95;93375.00;4983549;28;20046;-90
2023/07/13 06:22:29;;;;;;;30.90;13.95;;;;;;;21.94;62.21;93375.75;4999328;28;20045;-90
2023/07/13 06:24:54;;;;;;;20.83;12.30;;;;;;;21.88;62.17;93377.88;4975004;28;20147;-91
2023/07/13 06:27:20;;;;;;;24.33;9.82;;;;;;;21.80;62.42;93383.31;4986557;28;20041;-90
2023/07/13 06:29:45;;;;;;;44.83;18.05;;;;;;;21.81;62.18;93379.28;5009360;28;20037;-94
2023/07/13 06:32:17;;;;;;;65.82;26.30;;;;;;;21.84;62.22;93385.75;5000526;28;20080;-93
2023/07/13 06:34:43;;;;;;;56.15;19.63;;;;;;;21.80;62.38;93388.09;4988798;28;20052;-94
2023/07/13 06:37:09;;;;;;;30.70;12.45;;;;;;;21.75;62.30;93397.19;4989561;28;20042;-89
2023/07/13 06:39:37;;;;;;;32.60;11.73;;;;;;;21.81;62.63;93397.81;5028388;28;20396;-89
2023/07/13 06:42:02;;;;;;;33.25;12.23;;;;;;;21.79;62.59;93398.34;5012857;28;20033;-90
2023/07/13 06:44:28;;;;;;;38.03;14.35;;;;;;;21.78;62.54;93402.38;5010000;28;20045;-90
2023/07/13 06:46:53;;;;;;;46.88;21.38;;;;;;;21.67;63.29;93413.59;5018904;28;20041;-91
2023/07/13 06:49:19;;;;;;;73.45;20.52;;;;;;;21.81;62.59;93417.09;5022767;28;20038;-95
2023/07/13 06:51:48;;;;;;;33.42;12.07;;;;;;;21.76;62.88;93407.66;5013947;28;20038;-92
2023/07/13 06:54:16;;;;;;;33.80;16.73;;;;;;;21.80;62.71;93412.84;5016297;28;20057;-91
2023/07/13 06:56:42;;;;;;;27.73;15.30;;;;;;;21.75;62.73;93408.19;5046466;28;20867;-92
2023/07/13 06:59:08;;;;;;;20.58;10.80;;;;;;;21.79;63.00;93412.09;5032341;28;20101;-88
2023/07/13 07:01:33;;;;;;;40.42;15.65;;;;;;;21.78;62.51;93410.63;5029382;28;20048;-91
2023/07/13 07:03:59;;;;;;;44.60;16.45;;;;;;;21.80;62.57;93407.34;5010025;28;20045;-91
2023/07/13 07:06:25;;;;;;;33.53;14.82;;;;;;;21.83;62.35;93415.28;5010123;28;20053;-92
2023/07/13 07:08:51;;;;;;;72.13;29.83;;;;;;;21.76;62.35;93423.44;5029154;28;20623;-87
2023/07/13 07:11:18;;;;;;;54.78;25.60;;;;;;;21.84;62.24;93411.25;5045409;28;20029;-92
2023/07/13 07:13:44;;;;;;;143.23;47.92;;;;;;;21.82;62.57;93407.56;5007491;28;20505;-90
2023/07/13 07:16:09;;;;;;;173.70;77.00;;;;;;;21.83;62.47;93404.28;5008164;28;20091;-87
2023/07/13 07:18:35;;;;;;;152.95;38.65;;;;;;;21.82;62.72;93418.56;5022493;28;20060;-86
2023/07/13 07:21:00;;;;;;;68.50;27.55;;;;;;;21.83;62.46;93420.03;5021311;28;20045;-86
2023/07/13 07:23:27;;;;;;;74.57;27.70;;;;;;;21.88;62.20;93414.41;5027212;28;20040;-89
2023/07/13 07:25:52;;;;;;;198.93;120.93;;;;;;;21.86;62.69;93432.75;5009059;28;20041;-87
2023/07/13 07:28:18;;;;;;;66.22;30.50;;;;;;;21.88;62.10;93435.69;5016040;28;20048;-88
2023/07/13 07:30:45;;;;;;;52.53;25.92;;;;;;;21.91;62.21;93426.34;5028014;28;20323;-87
2023/07/13 07:33:11;;;;;;;90.35;33.67;;;;;;;21.85;62.44;93425.75;5011612;28;20033;-88
2023/07/13 07:35:36;;;;;;;34.95;18.55;;;;;;;21.81;62.58;93426.06;5027567;28;20523;-92
2023/07/13 07:38:02;;;;;;;34.67;16.10;;;;;;;21.76;62.49;93426.19;5029998;28;20049;-93
2023/07/13 07:40:28;;;;;;;27.98;13.38;;;;;;;21.70;62.32;93420.78;5005481;28;20060;-90
2023/07/13 07:42:54;;;;;;;24.85;10.65;;;;;;;21.69;62.34;93424.06;5034160;28;20041;-88
2023/07/13 07:45:20;;;;;;;21.45;10.63;;;;;;;21.73;62.10;93436.25;5015547;28;20041;-89
2023/07/13 07:47:49;;;;;;;60.25;13.05;;;;;;;21.76;61.91;93435.19;4996402;28;20048;-90
2023/07/13 07:50:22;;;;;;;42.97;10.40;;;;;;;21.75;61.91;93421.97;5014676;28;20097;-92
2023/07/13 07:52:47;;;;;;;27.50;7.78;;;;;;;21.80;61.61;93421.09;5028490;28;20523;-90
2023/07/13 07:55:13;;;;;;;24.65;7.63;;;;;;;21.74;61.39;93429.47;5051202;28;20061;-94
2023/07/13 07:57:44;;;;;;;35.80;8.77;;;;;;;21.75;61.22;93427.47;5022749;28;20401;-89
2023/07/13 08:00:10;;;;;;;53.10;12.73;;;;;;;21.77;61.07;93433.19;5027118;28;20042;-90
2023/07/13 08:02:35;;;;;;;30.75;8.75;;;;;;;21.74;60.76;93442.50;5015414;28;20838;-90
2023/07/13 08:05:01;;;;;;;27.75;9.93;;;;;;;21.77;60.43;93444.19;5033101;28;20065;-91
2023/07/13 08:07:26;;;;;;;54.03;23.13;;;;;;;21.77;60.42;93442.16;5030498;28;20046;-90
2023/07/13 08:09:53;;;;;;;34.10;22.67;;;;;;;21.86;60.26;93441.00;5010097;28;20034;-91
2023/07/13 08:12:18;;;;;;;28.40;16.92;;;;;;;21.84;59.91;93440.78;4989684;28;20061;-91
2023/07/13 08:14:45;;;;;;;12.70;8.75;;;;;;;21.73;60.57;93446.50;5009537;28;20037;-89
2023/07/13 08:17:22;;;;;;;16.70;9.63;;;;;;;21.70;60.29;93448.31;5025431;28;20120;-90
2023/07/13 08:19:47;;;;;;;24.67;12.98;;;;;;;21.85;59.83;93456.78;5029871;28;20046;-90
2023/07/13 08:22:13;;;;;;;26.95;13.43;;;;;;;21.92;59.53;93458.13;5033779;28;20056;-92
2023/07/13 08:24:38;;;;;;;17.92;10.88;;;;;;;21.84;59.18;93462.81;5010154;28;20053;-89
2023/07/13 08:27:04;;;;;;;25.13;12.65;;;;;;;21.86;58.73;93469.25;5010139;28;20037;-90
2023/07/13 08:29:31;;;;;;;28.63;11.73;;;;;;;21.85;58.71;93473.28;4975436;28;20057;-91
2023/07/13 08:31:59;;;;;;;19.77;11.05;;;;;;;21.82;58.33;93473.59;4996198;28;20104;-90
2023/07/13 08:34:24;;;;;;;19.50;8.50;;;;;;;21.83;58.61;93475.09;4993199;28;20042;-89
2023/07/13 08:36:50;;;;;;;19.13;7.57;;;;;;;21.82;58.36;93479.84;4977735;28;20046;-89
2023/07/13 08:39:15;;;;;;;16.30;6.93;;;;;;;21.78;58.70;93500.69;4980697;28;20037;-91
2023/07/13 08:41:41;;;;;;;10.65;5.90;;;;;;;21.71;58.40;93499.31;4974492;28;20046;-88
2023/07/13 08:44:15;;;;;;;10.85;5.65;;;;;;;21.72;58.33;93508.31;4989800;28;20433;-91
2023/07/13 08:46:41;;;;;;;33.90;14.90;;;;;;;21.76;58.81;93506.72;4983141;28;20172;-90
2023/07/13 08:49:16;;;;;;;27.38;13.25;;;;;;;21.67;59.54;93509.91;4966763;28;20046;-91
2023/07/13 08:51:57;;;;;;;24.65;12.05;;;;;;;21.69;59.82;93506.63;4967555;28;20046;-92
2023/07/13 08:54:45;;;;;;;37.53;14.27;;;;;;;21.77;59.04;93497.19;4966552;28;20556;-89
2023/07/13 08:57:15;;;;;;;16.10;10.65;;;;;;;21.80;59.45;93504.41;4957035;28;20049;-90
2023/07/13 08:59:42;;;;;;;41.67;21.55;;;;;;;21.84;59.14;93496.56;4990358;28;20043;-91
2023/07/13 09:02:37;;;;;;;59.05;31.33;;;;;;;21.80;59.16;93503.66;4952496;28;20047;-88
2023/07/13 09:05:08;;;;;;;48.70;29.85;;;;;;;21.72;59.39;93511.81;4999438;28;20043;-90
2023/07/13 09:08:02;;;;;;;60.53;35.30;;;;;;;21.73;59.46;93512.53;4992209;28;20078;-90
2023/07/13 09:10:30;;;;;;;61.67;39.83;;;;;;;21.75;59.16;93508.00;4975741;28;20130;-90
2023/07/13 09:13:06;;;;;;;45.08;30.20;;;;;;;21.81;59.01;93507.91;4990312;28;20129;-90
2023/07/13 09:15:38;;;;;;;31.52;20.60;;;;;;;21.67;59.14;93509.91;4987463;28;20138;-91
2023/07/13 09:18:10;;;;;;;97.38;53.03;;;;;;;21.59;58.57;93513.84;4984716;28;20042;-90
2023/07/13 09:20:44;;;;;;;108.97;52.88;;;;;;;21.60;58.56;93507.81;4995020;28;20046;-93
2023/07/13 09:23:15;;;;;;;117.68;49.10;;;;;;;21.68;58.69;93519.63;4967931;28;20143;-91
2023/07/13 09:25:41;;;;;;;;;;;;;;;21.70;58.63;93508.84;4987072;28;20085;-92
2023/07/13 09:28:17;;;;;;;52.35;23.40;;;;;;;21.62;58.42;93513.53;5009825;28;20308;-95
2023/07/13 09:30:53;;;;;;;44.63;23.98;;;;;;;21.54;58.25;93510.66;4975201;28;20129;-92
2023/07/13 09:33:19;;;;;;;46.58;23.88;;;;;;;21.53;58.50;93498.16;4964533;28;20193;-92
2023/07/13 09:35:44;;;;;;;49.80;23.88;;;;;;;21.61;58.28;93514.78;4988535;28;20078;-92
2023/07/13 09:38:17;;;;;;;67.88;26.88;;;;;;;21.58;58.37;93507.59;4964372;28;20046;-92
2023/07/13 09:40:58;;;;;;;80.75;28.92;;;;;;;21.70;58.03;93514.34;4977444;28;20113;-89
2023/07/13 09:43:24;;;;;;;55.55;22.27;;;;;;;21.70;58.08;93524.59;5010429;28;20674;-90
2023/07/13 09:45:49;;;;;;;58.85;24.67;;;;;;;21.62;57.67;93524.53;4976309;28;20061;-92
2023/07/13 09:48:15;;;;;;;58.13;21.73;;;;;;;21.64;57.31;93526.75;4996644;28;20053;-91
2023/07/13 09:50:42;;;;;;;68.95;21.15;;;;;;;21.63;57.13;93525.25;4987856;28;20046;-91
2023/07/13 09:53:17;;;;;;;48.38;17.65;;;;;;;21.60;56.98;93527.06;4986764;28;20034;-90
2023/07/13 09:55:45;;;;;;;28.25;10.98;;;;;;;21.65;56.55;93528.94;5004076;28;20511;-89
2023/07/13 09:58:19;;;;;;;30.70;13.70;;;;;;;21.60;56.57;93527.06;4997866;28;20038;-89
2023/07/13 10:00:59;;;;;;;56.80;13.93;;;;;;;21.63;56.51;93534.25;5022435;28;20046;-91
2023/07/13 10:03:27;;;;;;;20.90;9.77;;;;;;;21.63;57.05;93534.25;5025663;28;20467;-90
2023/07/13 10:05:52;;;;;;;72.65;21.85;;;;;;;21.72;56.80;93536.56;5041545;28;20075;-88
2023/07/13 10:08:27;;;;;;;33.38;13.18;;;;;;;21.75;57.42;93534.78;5024593;28;20443;-90
2023/07/13 10:10:57;;;;;;;64.93;20.88;;;;;;;21.72;57.78;93544.09;5023593;28;20049;-90
2023/07/13 10:13:27;;;;;;;43.38;14.85;;;;;;;21.74;57.80;93542.28;5026893;28;20049;-89
2023/07/13 10:15:53;;;;;;;26.77;12.68;;;;;;;21.76;57.80;93544.50;5027906;28;20052;-89
2023/07/13 10:18:18;;;;;;;24.20;10.07;;;;;;;21.79;58.42;93537.94;5009872;28;20037;-91
2023/07/13 10:20:44;;;;;;;51.90;12.00;;;;;;;21.76;58.34;93534.25;5018172;28;20069;-89
2023/07/13 10:23:15;;;;;;;16.02;6.70;;;;;;;21.77;57.84;93543.25;5004150;28;20061;-89
2023/07/13 10:25:44;;;;;;;20.95;6.82;;;;;;;21.66;57.96;93543.44;5014066;28;20068;-91
2023/07/13 10:28:27;;;;;;;9.27;4.70;;;;;;;21.70;57.89;93543.88;4986531;28;20038;-90
2023/07/13 10:30:52;;;;;;;12.55;5.50;;;;;;;21.75;57.99;93537.53;5019232;28;20049;-90
2023/07/13 10:33:18;;;;;;;12.25;4.05;;;;;;;21.71;57.25;93526.84;5018616;28;20136;-90
2023/07/13 10:35:43;;;;;;;9.95;3.33;;;;;;;21.71;55.82;93531.59;5010778;28;20046;-90
2023/07/13 10:38:19;;;;;;;6.00;2.70;;;;;;;21.79;54.35;93524.19;4980867;28;20056;-90
2023/07/13 10:41:00;;;;;;;7.72;5.13;;;;;;;21.78;53.15;93528.97;5007429;28;20173;-89
2023/07/13 10:43:28;;;;;;;16.90;9.38;;;;;;;21.68;53.20;93533.38;5002549;28;20129;-89
2023/07/13 10:45:54;;;;;;;21.45;10.93;;;;;;;21.62;52.97;93532.03;5019548;28;20110;-90
2023/07/13 10:48:20;;;;;;;25.30;14.93;;;;;;;21.63;53.38;93537.00;5001107;28;20447;-89
2023/07/13 10:50:46;;;;;;;20.15;9.38;;;;;;;21.58;53.79;93540.59;5001743;28;20136;-90
2023/07/13 10:53:31;;;;;;;19.13;9.13;;;;;;;21.64;53.47;93546.00;5018731;28;20124;-89
2023/07/13 10:56:06;;;;;;;28.17;13.35;;;;;;;21.68;54.16;93540.91;5008217;28;20038;-89
2023/07/13 10:58:39;;;;;;;48.70;24.60;;;;;;;21.70;54.10;93536.34;5005715;28;20149;-91
2023/07/13 11:01:13;;;;;;;45.60;25.25;;;;;;;21.80;54.01;93525.69;5024889;28;20037;-89
2023/07/13 11:04:02;;;;;;;45.38;27.77;;;;;;;21.75;54.18;93543.78;5025653;28;20060;-86
2023/07/13 11:06:30;;;;;;;41.80;19.25;;;;;;;21.83;53.98;93541.13;5004873;28;20096;-87
2023/07/13 11:09:00;;;;;;;40.75;20.13;;;;;;;21.83;54.06;93543.88;5021978;28;20434;-88
2023/07/13 11:11:26;;;;;;;48.10;24.08;;;;;;;21.77;54.03;93543.25;5009811;28;20068;-90
2023/07/13 11:13:51;;;;;;;92.28;46.42;;;;;;;21.97;53.80;93542.59;5023962;28;20436;-91
2023/07/13 11:16:22;;;;;;;86.15;44.28;;;;;;;21.98;53.12;93535.06;5024928;28;20120;-87
2023/07/13 11:18:52;;;;;;;93.13;38.22;;;;;;;22.00;51.99;93538.03;5022625;28;20132;-86
2023/07/13 11:21:22;;;;;;;132.63;47.40;;;;;;;22.03;51.33;93540.50;5029171;28;20053;-87
2023/07/13 11:24:12;;;;;;;68.82;30.25;;;;;;;22.04;51.13;93544.75;5007220;28;20038;-87